Flight Track Log - Related Links

Times and Time Zones

All times are in EDT time to prevent confusion due to time zone crossing. See the GJS3706 flight status page for this flight to view local times or setup timezone preferences in your user account.

Time Position Orientation Groundspeed Altitude Reporting Facility
EDT Latitude Longitude Course Direction KTS MPH feet Rate Location/Type
Fri 08:59:52 AM 42.0333 -87.9333 86° East 195 224 3,100  Level Chicago TRACON
Fri 09:00:47 AM 42.0667 -87.8833 48° Northeast 247 284 4,900 2,230 Climbing Chicago TRACON
Fri 09:01:45 AM 42.0833 -87.7833 77° East 286 329 7,300 2,571 Climbing Chicago TRACON
Fri 09:02:00 AM 42.1659 -87.3523 66° East  Level FlightAware Approximate
Fri 09:02:46 AM 42.1167 -87.6833 66° East 299 344 10,000  Level Chicago TRACON
Fri 09:03:00 AM 42.2133 -87.2102 66° East  Level FlightAware Approximate
Fri 09:04:00 AM 42.2607 -87.0679 66° East  Level FlightAware Approximate
Fri 09:04:06 AM 42.1544 -87.5325 71° East 305 351 13,300  Level Chicago Center
Fri 09:05:00 AM 42.2709 -86.9137 86° East  Level FlightAware Approximate
Fri 09:05:08 AM 42.1669 -87.4122 82° East 330 380 15,500  Level Chicago Center
Fri 09:06:10 AM 42.1736 -87.2778 86° East 358 412 16,600 1,403 Climbing Chicago Center
Fri 09:07:12 AM 42.1808 -87.1306 86° East 390 449 18,400 1,790 Climbing Chicago Center
Fri 09:08:14 AM 42.1881 -86.9800 86° East 401 461 20,300 1,902 Climbing Chicago Center
Fri 09:09:15 AM 42.1972 -86.7958 86° East 411 473 22,300 1,415 Climbing Chicago Center
Fri 09:10:17 AM 42.2028 -86.6658 87° East 420 483 23,200 1,161 Climbing Chicago Center
Fri 09:11:19 AM 42.2119 -86.4667 86° East 442 509 24,700 1,403 Climbing Chicago Center
Fri 09:12:21 AM 42.2194 -86.2981 87° East 449 517 26,100 1,355 Climbing Chicago Center
Fri 09:13:23 AM 42.2278 -86.1292 86° East 450 518 27,500 1,210 Climbing Chicago Center
Fri 09:14:25 AM 42.2336 -85.9603 87° East 450 518 28,600 1,113 Climbing Chicago Center
Fri 09:15:27 AM 42.2411 -85.7697 87° East 458 527 29,800 1,065 Climbing Chicago Center
Fri 09:16:29 AM 42.2481 -85.5956 87° East 467 537 30,800 968 Climbing Chicago Center
Fri 09:17:31 AM 42.2547 -85.4192 87° East 474 545 31,800 919 Climbing Chicago Center
Fri 09:18:33 AM 42.2611 -85.2417 87° East 476 548 32,700 726 Climbing Chicago Center
Fri 09:19:35 AM 42.2681 -85.0617 87° East 482 555 33,300 726 Climbing Chicago Center
Fri 09:20:37 AM 42.2756 -84.8425 87° East 487 560 34,200 871 Climbing Chicago Center
Fri 09:21:39 AM 42.2892 -84.6611 84° East 486 559 35,100 774 Climbing Chicago Center
Fri 09:22:41 AM 42.3053 -84.4828 83° East 483 556 35,800 653 Climbing Chicago Center
Fri 09:23:20 AM 42.3150 -84.3547 84° East 475 547 36,200 545 Climbing Cleveland Center
Fri 09:24:20 AM 42.3292 -84.1728 84° East 480 552 36,700 400 Climbing Cleveland Center
Fri 09:25:20 AM 42.3453 -83.9883 83° East 480 552 37,000 150 Climbing Cleveland Center
Fri 09:26:20 AM 42.3608 -83.8064 83° East 480 552 37,000  Level Cleveland Center
Fri 09:27:20 AM 42.3803 -83.6275 82° East 480 552 37,000  Level Cleveland Center
Fri 09:28:20 AM 42.3908 -83.4592 85° East 487 560 37,000  Level Cleveland Center
Fri 09:29:20 AM 42.4036 -83.2828 84° East 478 550 37,000  Level Cleveland Center
Fri 09:30:20 AM 42.4181 -83.1006 84° East 478 550 37,000  Level Cleveland Center
Fri 09:31:20 AM 42.4322 -82.9208 84° East 478 550 37,000  Level Cleveland Center
Fri 09:32:20 AM 42.4439 -82.7469 85° East 478 550 37,000  Level Cleveland Center
Fri 09:33:20 AM 42.4556 -82.5672 85° East 478 550 37,000  Level Cleveland Center
Fri 09:34:20 AM 42.4689 -82.3875 84° East 478 550 37,000  Level Cleveland Center
Fri 09:35:20 AM 42.4819 -82.2075 84° East 478 550 37,000  Level Cleveland Center
Fri 09:36:20 AM 42.4950 -82.0250 84° East 478 550 37,000  Level Cleveland Center
Fri 09:37:20 AM 42.5053 -81.8478 85° East 478 550 37,000  Level Cleveland Center
Fri 09:38:20 AM 42.5197 -81.6733 84° East 478 550 37,000  Level Cleveland Center
Fri 09:39:20 AM 42.5294 -81.4989 86° East 478 550 37,000  Level Cleveland Center
Fri 09:40:20 AM 42.5411 -81.3131 85° East 478 550 37,000  Level Cleveland Center
Fri 09:41:20 AM 42.5525 -81.1411 85° East 478 550 37,000  Level Cleveland Center
Fri 09:42:20 AM 42.5639 -80.9667 85° East 467 537 37,000  Level Cleveland Center
Fri 09:43:20 AM 42.5725 -80.7719 86° East 461 531 37,000  Level Cleveland Center
Fri 09:44:20 AM 42.5831 -80.6000 85° East 461 531 37,000  Level Cleveland Center
Fri 09:45:20 AM 42.5914 -80.4253 86° East 461 531 37,000 -350 Level Cleveland Center
Fri 09:46:20 AM 42.6056 -80.2589 83° East 461 531 36,300 -850 Descending Cleveland Center
Fri 09:47:20 AM 42.6383 -80.0950 75° East 455 524 35,300 -950 Descending Cleveland Center
Fri 09:48:20 AM 42.6606 -79.9311 79° East 449 517 34,400 -850 Descending Cleveland Center
Fri 09:49:20 AM 42.6658 -79.7644 87° East 444 511 33,600 -650 Descending Cleveland Center
Fri 09:50:20 AM 42.6706 -79.5919 88° East 444 511 33,100 -450 Descending Cleveland Center
Fri 09:51:20 AM 42.6753 -79.4169 88° East 449 517 32,700 -700 Descending Cleveland Center
Fri 09:52:20 AM 42.6797 -79.2472 88° East 449 517 31,700 -1,000 Descending Cleveland Center
Fri 09:53:20 AM 42.6881 -79.0747 86° East 455 524 30,700 -850 Descending Cleveland Center
Fri 09:54:20 AM 42.6961 -78.9053 86° East 455 524 30,000 -600 Descending Cleveland Center
Fri 09:55:20 AM 42.7019 -78.7383 87° East 455 524 29,500 -500 Descending Cleveland Center
Fri 09:56:20 AM 42.7053 -78.5686 88° East 455 524 29,000 -250 Descending Cleveland Center
Fri 09:57:20 AM 42.7106 -78.3989 88° East 450 518 29,000  Level Cleveland Center
Fri 09:58:20 AM 42.7156 -78.2319 88° East 445 512 29,000  Level Cleveland Center
Fri 09:59:20 AM 42.7183 -78.0625 89° East 440 506 29,000  Level Cleveland Center
Fri 10:00:20 AM 42.7228 -77.8897 88° East 445 512 29,000  Level Cleveland Center
Fri 10:01:20 AM 42.7292 -77.7228 87° East 445 512 29,000  Level Cleveland Center
Fri 10:02:20 AM 42.7328 -77.5444 88° East 452 520 29,000  Level Cleveland Center
Fri 10:03:20 AM 42.7350 -77.3917 89° East 452 520 29,000  Level Cleveland Center
Fri 10:05:01 AM 42.7389 -77.0883 89° East 445 512 29,000  Level Boston Center
Fri 10:06:01 AM 42.7417 -76.9161 89° East 450 518 29,000  Level Boston Center
Fri 10:07:01 AM 42.7442 -76.7436 89° East 455 524 29,000 -50 Level Boston Center
Fri 10:08:01 AM 42.7442 -76.5711 90° East 455 524 28,900 -750 Descending Boston Center
Fri 10:09:01 AM 42.7231 -76.4031 100° East 460 529 27,500 -1,300 Descending Boston Center
Fri 10:10:01 AM 42.7019 -76.2319 99° East 460 529 26,300 -750 Descending Boston Center
Fri 10:11:01 AM 42.6864 -76.0672 97° East 446 513 26,000 -450 Descending Boston Center
Fri 10:12:01 AM 42.6939 -75.8981 86° East 446 513 25,400 -1,300 Descending Boston Center
Fri 10:13:01 AM 42.7003 -75.7458 87° East 446 513 23,400 -1,800 Descending Boston Center
Fri 10:14:01 AM 42.7042 -75.6161 88° East 440 506 21,800 -2,000 Descending Boston Center
Fri 10:15:01 AM 42.7092 -75.4269 88° East 428 493 19,400 -2,400 Descending Boston Center
Fri 10:16:01 AM 42.7153 -75.2689 87° East 412 474 17,000 -2,100 Descending Boston Center
Fri 10:17:01 AM 42.7189 -75.1250 88° East 401 461 15,200 -1,650 Descending Boston Center
Fri 10:18:01 AM 42.7222 -74.9753 88° East 396 456 13,700 -1,565 Descending Boston Center
Fri 10:18:56 AM 42.7378 -74.8317 82° East 386 444 12,200 -1,345 Descending Boston Center
Fri 10:19:57 AM 42.7739 -74.6972 70° East 375 432 11,100 -595 Descending Boston Center
Fri 10:20:57 AM 42.8056 -74.5767 70° East 330 380 11,000 -532 Descending Boston Center
Fri 10:22:01 AM 42.8308 -74.4475 75° East 319 367 10,000 -1,328 Descending Boston Center
Fri 10:22:59 AM 42.8472 -74.3347 79° East 310 357 8,300 -1,750 Descending Boston Center
Fri 10:24:01 AM 42.8678 -74.2219 76° East 308 354 6,500 -1,672 Descending Boston Center
Fri 10:25:01 AM 42.8800 -74.1175 81° East 308 354 4,900 -1,571 Descending Boston Center
Fri 10:26:07 AM 42.8983 -73.9933 79° East 296 341 3,200 -1,091 Descending Boston Center
Fri 10:27:13 AM 42.9164 -73.8889 77° East 255 293 2,500 -636 Descending Boston Center

Login

Don't have an account? Register now (free) for customized features, flight alerts, and more!